createdAt,value
2019-04-27T00:01:13.705Z,14.20
2019-04-27T00:04:04.146Z,14.47
2019-04-27T00:06:43.025Z,15.13
2019-04-27T00:09:26.306Z,15.88
2019-04-27T00:11:59.012Z,14.63
2019-04-27T00:14:29.802Z,14.30
2019-04-27T00:17:33.099Z,14.90
2019-04-27T00:20:10.444Z,14.85
2019-04-27T00:22:43.588Z,13.72
2019-04-27T00:25:14.498Z,15.90
2019-04-27T00:27:45.274Z,14.20
2019-04-27T00:30:17.170Z,14.17
2019-04-27T00:32:47.951Z,15.53
2019-04-27T00:35:20.638Z,15.50
2019-04-27T00:37:53.310Z,16.00
2019-04-27T00:40:26.008Z,15.00
2019-04-27T00:42:56.820Z,15.13
2019-04-27T00:45:27.592Z,15.50
2019-04-27T00:47:59.788Z,14.90
2019-04-27T00:50:30.875Z,15.77
2019-04-27T00:53:03.290Z,16.40
2019-04-27T00:55:36.222Z,15.18
2019-04-27T00:58:08.900Z,15.72
2019-04-27T01:00:47.243Z,15.95
2019-04-27T01:03:19.920Z,15.30
2019-04-27T01:05:50.752Z,14.85
2019-04-27T01:08:22.940Z,15.97
2019-04-27T01:10:53.873Z,14.55
2019-04-27T01:13:24.591Z,14.57
2019-04-27T01:15:55.368Z,14.53
2019-04-27T01:18:26.143Z,15.40
2019-04-27T01:20:56.906Z,15.10
2019-04-27T01:23:29.334Z,16.40
2019-04-27T01:26:09.625Z,15.55
2019-04-27T01:28:49.016Z,16.35
2019-04-27T01:31:21.237Z,15.07
2019-04-27T01:33:52.249Z,15.98
2019-04-27T01:36:23.279Z,15.17
2019-04-27T01:38:54.033Z,14.90
2019-04-27T01:41:24.831Z,15.07
2019-04-27T01:43:55.712Z,15.80
2019-04-27T01:47:19.213Z,14.83
2019-04-27T01:49:58.481Z,14.45
2019-04-27T01:52:34.742Z,15.00
2019-04-27T01:55:05.716Z,14.95
2019-04-27T01:57:36.491Z,16.33
2019-04-27T02:00:33.912Z,16.60
2019-04-27T02:03:08.503Z,19.40
2019-04-27T02:05:41.413Z,16.35
2019-04-27T02:08:12.212Z,14.80
2019-04-27T02:10:43.197Z,17.03
2019-04-27T02:13:13.989Z,15.70
2019-04-27T02:15:44.776Z,16.40
2019-04-27T02:18:15.555Z,16.20
2019-04-27T02:20:46.341Z,16.00
2019-04-27T02:23:17.153Z,18.77
2019-04-27T02:25:49.675Z,18.42
2019-04-27T02:28:34.931Z,18.10
2019-04-27T02:31:13.238Z,18.23
2019-04-27T02:33:50.053Z,18.07
2019-04-27T02:36:20.992Z,18.00
2019-04-27T02:38:51.777Z,19.17
2019-04-27T02:41:22.552Z,21.37
2019-04-27T02:43:55.241Z,18.50
2019-04-27T02:46:26.230Z,19.35
2019-04-27T02:49:03.576Z,22.03
2019-04-27T02:51:31.595Z,17.90
2019-04-27T02:54:02.375Z,22.30
2019-04-27T02:56:33.165Z,20.50
2019-04-27T02:59:03.960Z,22.70
2019-04-27T03:01:53.452Z,21.00
2019-04-27T03:04:24.533Z,20.70
2019-04-27T03:06:55.296Z,21.07
2019-04-27T03:09:26.086Z,22.80
2019-04-27T03:11:59.465Z,23.23
2019-04-27T03:14:50.612Z,23.95
2019-04-27T03:17:39.669Z,22.90
2019-04-27T03:20:20.135Z,25.52
2019-04-27T03:22:56.114Z,23.35
2019-04-27T03:25:31.903Z,24.55
2019-04-27T03:28:06.497Z,22.10
2019-04-27T03:30:41.743Z,26.70
2019-04-27T03:33:11.938Z,25.85
2019-04-27T03:35:43.938Z,26.27
2019-04-27T03:38:15.156Z,24.57
2019-04-27T03:40:45.939Z,25.43
2019-04-27T03:43:19.946Z,25.60
2019-04-27T03:45:52.440Z,25.15
2019-04-27T03:48:23.514Z,25.97
2019-04-27T03:50:56.199Z,25.67
2019-04-27T03:53:34.696Z,24.52
2019-04-27T03:56:24.020Z,24.70
2019-04-27T03:58:56.726Z,25.95
2019-04-27T04:01:27.529Z,28.02
2019-04-27T04:03:59.883Z,25.40
2019-04-27T04:06:31.002Z,25.80
2019-04-27T04:09:03.780Z,25.03
2019-04-27T04:11:45.351Z,24.57
2019-04-27T04:14:20.136Z,25.52
2019-04-27T04:16:52.636Z,25.40
2019-04-27T04:19:23.429Z,26.95
2019-04-27T04:21:54.221Z,27.50
2019-04-27T04:24:28.391Z,26.80
2019-04-27T04:26:59.976Z,27.45
2019-04-27T04:29:30.770Z,27.55
2019-04-27T04:32:01.634Z,29.32
2019-04-27T04:34:32.419Z,30.30
2019-04-27T04:37:03.197Z,31.70
2019-04-27T04:39:33.974Z,31.50
2019-04-27T04:42:21.810Z,31.23
2019-04-27T04:45:00.596Z,31.35
2019-04-27T04:47:45.242Z,31.77
2019-04-27T04:50:16.028Z,31.73
2019-04-27T04:52:46.801Z,28.90
2019-04-27T04:55:20.125Z,32.33
2019-04-27T04:57:50.282Z,31.25
2019-04-27T05:00:21.066Z,31.30
2019-04-27T05:02:51.850Z,31.43
2019-04-27T05:05:22.636Z,32.90
2019-04-27T05:07:53.400Z,31.63
2019-04-27T05:10:25.028Z,33.73
2019-04-27T05:12:55.825Z,33.77
2019-04-27T05:15:26.865Z,32.27
2019-04-27T05:17:59.086Z,33.80
2019-04-27T05:20:34.724Z,31.25
2019-04-27T05:23:05.523Z,31.00
2019-04-27T05:25:36.307Z,33.33
2019-04-27T05:28:07.104Z,32.57
2019-04-27T05:30:39.105Z,31.47
2019-04-27T05:33:10.114Z,33.18
2019-04-27T05:35:41.199Z,31.03
2019-04-27T05:38:13.569Z,30.68
2019-04-27T05:40:44.574Z,31.25
2019-04-27T05:43:17.237Z,29.20
2019-04-27T05:46:19.027Z,27.87
2019-04-27T05:48:49.974Z,27.95
2019-04-27T05:51:20.748Z,30.23
2019-04-27T05:53:51.519Z,28.17
2019-04-27T05:56:22.323Z,26.93
2019-04-27T05:58:53.068Z,27.23
2019-04-27T06:01:23.835Z,29.73
2019-04-27T06:03:54.626Z,28.60
2019-04-27T06:06:25.445Z,27.60
2019-04-27T06:08:56.207Z,26.83
2019-04-27T06:11:28.651Z,27.10
2019-04-27T06:14:11.002Z,25.82
2019-04-27T06:16:59.978Z,26.85
2019-04-27T06:19:30.754Z,25.65
2019-04-27T06:23:16.530Z,25.40
2019-04-27T06:25:55.147Z,24.92
2019-04-27T06:29:46.123Z,24.47
2019-04-27T06:32:16.935Z,25.45
2019-04-27T06:38:02.256Z,23.60
2019-04-27T06:41:03.900Z,21.95
2019-04-27T06:50:35.496Z,23.62
2019-04-27T06:59:28.876Z,21.27
2019-04-27T07:02:08.696Z,20.80
2019-04-27T07:11:49.487Z,20.52
2019-04-27T07:22:34.808Z,18.20
2019-04-27T07:27:12.697Z,18.90
2019-04-27T07:34:23.065Z,16.30
2019-04-27T07:45:49.414Z,16.60
2019-04-27T07:50:51.353Z,16.83
2019-04-27T07:54:01.233Z,16.00
2019-04-27T08:01:03.670Z,16.27
2019-04-27T08:17:42.864Z,15.13
2019-04-27T08:20:43.869Z,14.70
2019-04-27T08:28:01.865Z,15.67
2019-04-27T08:30:45.949Z,20.03
2019-04-27T08:33:50.952Z,17.80
2019-04-27T08:38:28.945Z,21.83
2019-04-27T08:41:10.414Z,22.87
2019-04-27T08:44:49.700Z,22.80
2019-04-27T08:48:39.656Z,23.03
2019-04-27T08:52:50.137Z,19.93
2019-04-27T08:55:59.202Z,21.97
2019-04-27T09:02:00.790Z,21.60
2019-04-27T10:03:27.657Z,22.50
2019-04-27T10:06:00.311Z,18.90
2019-04-27T10:08:52.041Z,18.50
2019-04-27T10:11:27.443Z,18.27
2019-04-27T10:14:01.839Z,18.90
2019-04-27T10:16:36.682Z,18.30
2019-04-27T10:19:28.723Z,18.40
2019-04-27T10:22:22.812Z,19.47
2019-04-27T10:24:58.608Z,21.30
2019-04-27T10:28:39.875Z,19.50
2019-04-27T10:31:17.046Z,18.00
2019-04-27T10:34:01.610Z,19.73
2019-04-27T10:37:01.468Z,19.00
2019-04-27T10:40:53.483Z,18.27
2019-04-27T10:43:31.362Z,17.93
2019-04-27T10:46:08.156Z,16.80
2019-04-27T10:48:39.023Z,17.47
2019-04-27T10:51:17.898Z,17.40
2019-04-27T10:54:02.632Z,16.60
2019-04-27T10:56:41.132Z,16.77
2019-04-27T11:01:56.009Z,17.20
2019-04-27T11:05:25.697Z,17.10
2019-04-27T11:09:56.906Z,17.67
2019-04-27T11:12:56.060Z,17.57
2019-04-27T11:16:51.438Z,17.07
2019-04-27T11:25:08.570Z,16.83
2019-04-27T11:32:23.583Z,15.30
2019-04-27T11:35:37.227Z,15.40
2019-04-27T11:38:48.808Z,14.10
2019-04-27T11:42:01.525Z,12.97
2019-04-27T11:45:30.567Z,13.33
2019-04-27T11:50:14.424Z,11.70
2019-04-27T11:59:41.023Z,9.73
2019-04-27T12:04:16.196Z,10.40
2019-04-27T12:06:51.244Z,10.50
2019-04-27T12:09:52.734Z,9.80
2019-04-27T12:13:12.876Z,10.20
2019-04-27T12:16:22.085Z,8.43
2019-04-27T12:18:56.400Z,10.30
2019-04-27T12:21:31.166Z,10.17
2019-04-27T12:24:18.420Z,10.23
2019-04-27T12:27:45.969Z,9.20
2019-04-27T12:30:23.211Z,10.83
2019-04-27T12:32:55.822Z,10.27
2019-04-27T12:35:44.459Z,9.33
2019-04-27T12:38:20.317Z,9.07
2019-04-27T12:41:26.264Z,8.83
2019-04-27T12:45:23.095Z,8.00
2019-04-27T12:48:20.377Z,7.87
2019-04-27T12:54:26.319Z,8.57
2019-04-27T12:57:15.986Z,8.07
2019-04-27T12:59:57.609Z,8.07
2019-04-27T13:02:42.094Z,8.30
2019-04-27T13:05:15.690Z,7.83
2019-04-27T13:09:57.143Z,7.50
2019-04-27T13:12:40.452Z,8.10
2019-04-27T13:15:11.538Z,7.80
2019-04-27T13:17:42.545Z,7.10
2019-04-27T13:20:48.969Z,7.73
2019-04-27T13:23:20.291Z,7.87
2019-04-27T13:25:53.483Z,7.70
2019-04-27T13:28:29.438Z,7.83
2019-04-27T13:31:00.237Z,7.40
2019-04-27T13:33:58.031Z,7.87
2019-04-27T13:36:32.982Z,7.90
2019-04-27T13:51:31.293Z,8.33
2019-04-27T13:54:21.520Z,8.43
2019-04-27T13:59:21.872Z,8.70
2019-04-27T14:01:58.649Z,8.40
2019-04-27T14:11:11.912Z,8.00
2019-04-27T14:14:10.760Z,7.90
2019-04-27T14:16:48.782Z,8.00
2019-04-27T14:19:51.840Z,7.83
2019-04-27T14:23:35.736Z,7.70
2019-04-27T14:26:53.625Z,7.60
2019-04-27T14:30:19.807Z,7.70
2019-04-27T14:35:47.964Z,7.70
2019-04-27T14:40:15.108Z,7.17
2019-04-27T14:44:07.775Z,7.63
2019-04-27T14:47:08.153Z,7.60
2019-04-27T14:50:29.443Z,8.37
2019-04-27T14:53:08.695Z,8.37
2019-04-27T14:55:40.150Z,8.10
2019-04-27T14:58:11.905Z,8.57
2019-04-27T15:00:43.315Z,8.33
2019-04-27T15:03:18.919Z,8.90
2019-04-27T15:05:53.645Z,7.87
2019-04-27T15:11:34.652Z,7.90
2019-04-27T15:14:09.080Z,7.30
2019-04-27T15:16:42.627Z,7.00
2019-04-27T15:19:40.888Z,6.80
2019-04-27T15:22:19.720Z,7.00
2019-04-27T15:29:13.352Z,7.23
2019-04-27T15:32:33.604Z,7.20
2019-04-27T15:35:50.577Z,7.10
2019-04-27T15:39:05.887Z,6.70
2019-04-27T15:42:51.225Z,6.73
2019-04-27T15:45:33.321Z,6.70
2019-04-27T15:48:04.108Z,6.10
2019-04-27T15:50:34.977Z,6.20
2019-04-27T15:53:09.849Z,6.10
2019-04-27T15:55:39.567Z,6.20
2019-04-27T15:58:10.519Z,6.20
2019-04-27T16:00:41.408Z,6.50
2019-04-27T16:03:12.182Z,6.10
2019-04-27T16:05:42.966Z,6.50
2019-04-27T16:08:15.695Z,6.00
2019-04-27T16:10:48.624Z,6.10
2019-04-27T16:13:19.558Z,6.60
2019-04-27T16:15:53.977Z,6.87
2019-04-27T16:18:24.468Z,6.87
2019-04-27T16:20:55.842Z,7.10
2019-04-27T16:23:28.229Z,7.10
2019-04-27T16:26:00.469Z,6.60
2019-04-27T16:28:32.209Z,6.40
2019-04-27T16:31:03.347Z,6.57
2019-04-27T16:33:34.347Z,6.60
2019-04-27T16:36:06.980Z,7.00
2019-04-27T16:38:42.514Z,7.00
2019-04-27T16:41:13.284Z,6.57
2019-04-27T16:43:45.677Z,6.80
2019-04-27T16:46:16.527Z,7.33
2019-04-27T16:48:47.314Z,6.97
2019-04-27T16:51:18.469Z,7.07
2019-04-27T16:53:49.381Z,6.63
2019-04-27T16:56:20.866Z,7.43
2019-04-27T16:58:56.796Z,7.17
2019-04-27T17:01:30.004Z,7.37
2019-04-27T17:03:59.548Z,7.40
2019-04-27T17:06:30.474Z,7.33
2019-04-27T17:09:06.772Z,7.17
2019-04-27T17:11:34.002Z,7.27
2019-04-27T17:14:08.166Z,6.90
2019-04-27T17:16:59.315Z,7.17
2019-04-27T17:19:35.836Z,6.77
2019-04-27T17:22:10.462Z,6.90
2019-04-27T17:24:46.705Z,6.93
2019-04-27T17:27:16.352Z,7.37
2019-04-27T17:29:50.010Z,6.83
2019-04-27T17:32:25.625Z,6.67
2019-04-27T17:34:55.621Z,6.60
2019-04-27T17:37:32.260Z,6.60
2019-04-27T17:40:00.891Z,6.20
2019-04-27T17:42:31.931Z,6.63
2019-04-27T17:45:05.214Z,6.80
2019-04-27T17:47:35.982Z,7.20
2019-04-27T17:50:06.968Z,6.57
2019-04-27T17:52:38.116Z,7.03
2019-04-27T17:55:10.504Z,6.80
2019-04-27T17:57:41.264Z,6.50
2019-04-27T18:00:12.540Z,6.70
2019-04-27T18:02:43.338Z,7.20
2019-04-27T18:05:15.087Z,7.03
2019-04-27T18:07:45.892Z,6.63
2019-04-27T18:10:22.986Z,6.93
2019-04-27T18:12:50.153Z,6.57
2019-04-27T18:15:20.920Z,6.80
2019-04-27T18:17:53.597Z,6.27
2019-04-27T18:20:25.579Z,6.60
2019-04-27T18:22:58.268Z,6.23
2019-04-27T18:25:30.969Z,5.50
2019-04-27T18:28:08.029Z,4.97
2019-04-27T18:30:52.549Z,5.30
2019-04-27T18:33:23.298Z,4.40
2019-04-27T18:35:58.863Z,4.50
2019-04-27T18:38:30.780Z,4.00
2019-04-27T18:41:02.971Z,4.10
2019-04-27T18:43:32.160Z,3.83
2019-04-27T18:46:03.228Z,3.50
2019-04-27T18:48:49.477Z,3.60
2019-04-27T18:51:38.488Z,3.40
2019-04-27T18:54:09.362Z,3.60
2019-04-27T18:56:41.677Z,3.50
2019-04-27T18:59:12.555Z,3.67
2019-04-27T19:01:43.348Z,3.30
2019-04-27T19:04:14.111Z,3.80
2019-04-27T19:06:44.914Z,3.70
2019-04-27T19:09:16.086Z,4.60
2019-04-27T19:11:54.901Z,3.87
2019-04-27T19:14:19.683Z,3.75
2019-04-27T19:16:50.458Z,3.70
2019-04-27T19:19:21.226Z,3.80
2019-04-27T19:21:52.012Z,3.90
2019-04-27T19:24:22.825Z,3.97
2019-04-27T19:27:01.663Z,3.80
2019-04-27T19:29:34.448Z,3.55
2019-04-27T19:32:05.364Z,3.80
2019-04-27T19:34:36.116Z,3.57
2019-04-27T19:37:08.179Z,3.90
2019-04-27T19:39:39.480Z,3.85
2019-04-27T19:42:10.318Z,3.80
2019-04-27T19:44:41.088Z,4.03
2019-04-27T19:47:11.922Z,3.70
2019-04-27T19:49:42.697Z,3.93
2019-04-27T19:52:13.468Z,5.97
2019-04-27T19:54:44.258Z,3.90
2019-04-27T19:57:15.040Z,3.37
2019-04-27T19:59:48.922Z,3.50
2019-04-27T20:02:20.439Z,3.67
2019-04-27T20:04:53.167Z,3.75
2019-04-27T20:07:23.964Z,3.83
2019-04-27T20:09:59.013Z,3.60
2019-04-27T20:12:31.371Z,3.60
2019-04-27T20:15:04.590Z,4.55
2019-04-27T20:17:35.419Z,3.50
2019-04-27T20:20:06.183Z,3.70
2019-04-27T20:22:36.959Z,3.30
2019-04-27T20:25:07.835Z,3.83
2019-04-27T20:27:46.730Z,4.37
2019-04-27T20:30:12.705Z,3.70
2019-04-27T20:32:43.483Z,4.03
2019-04-27T20:35:14.270Z,4.20
2019-04-27T20:37:45.038Z,3.67
2019-04-27T20:40:15.917Z,3.63
2019-04-27T20:42:46.692Z,4.00
2019-04-27T20:45:17.465Z,4.03
2019-04-27T20:47:48.245Z,4.03
2019-04-27T20:50:19.027Z,4.07
2019-04-27T20:52:51.729Z,3.60
2019-04-27T20:55:22.685Z,4.47
2019-04-27T20:58:01.779Z,3.90
2019-04-27T21:00:26.128Z,4.17
2019-04-27T21:03:15.623Z,4.03
2019-04-27T21:05:57.485Z,4.30
2019-04-27T21:08:31.109Z,3.80
2019-04-27T21:11:01.974Z,5.67
2019-04-27T21:13:32.758Z,3.40
2019-04-27T21:16:03.558Z,4.67
2019-04-27T21:18:36.563Z,4.30
2019-04-27T21:21:07.339Z,4.15
2019-04-27T21:23:38.226Z,4.03
2019-04-27T21:26:09.301Z,3.87
2019-04-27T21:28:42.967Z,3.90
2019-04-27T21:31:13.055Z,3.92
2019-04-27T21:33:43.827Z,3.77
2019-04-27T21:36:14.612Z,3.90
2019-04-27T21:38:45.419Z,3.93
2019-04-27T21:41:16.199Z,4.70
2019-04-27T21:43:46.972Z,3.90
2019-04-27T21:46:17.740Z,4.13
2019-04-27T21:48:48.548Z,4.10
2019-04-27T21:51:19.310Z,4.07
2019-04-27T21:53:57.833Z,3.93
2019-04-27T21:56:28.593Z,4.40
2019-04-27T21:59:01.033Z,4.63
2019-04-27T22:01:32.732Z,3.85
2019-04-27T22:04:03.652Z,4.40
2019-04-27T22:06:34.413Z,4.60
2019-04-27T22:09:09.772Z,4.17
2019-04-27T22:11:40.932Z,4.08
2019-04-27T22:14:11.922Z,4.15
2019-04-27T22:16:42.678Z,4.23
2019-04-27T22:19:13.452Z,4.93
2019-04-27T22:21:44.218Z,4.57
2019-04-27T22:24:16.928Z,7.30
2019-04-27T22:26:47.774Z,4.12
2019-04-27T22:29:18.695Z,4.00
2019-04-27T22:31:51.401Z,4.07
2019-04-27T22:34:22.381Z,4.50
2019-04-27T22:36:53.149Z,5.03
2019-04-27T22:39:28.575Z,5.17
2019-04-27T22:42:11.950Z,4.12
2019-04-27T22:44:44.687Z,4.83
2019-04-27T22:47:15.462Z,4.78
2019-04-27T22:49:46.237Z,5.03
2019-04-27T22:52:42.058Z,4.70
2019-04-27T22:55:12.844Z,4.05
2019-04-27T22:58:01.882Z,4.33
2019-04-27T23:00:55.649Z,4.28
2019-04-27T23:03:53.420Z,4.10
2019-04-27T23:09:58.767Z,4.80
2019-04-27T23:18:00.057Z,4.80
2019-04-27T23:35:28.224Z,4.60
2019-04-27T23:54:42.712Z,4.75
2019-04-27T23:58:10.706Z,4.42
